Aviation Digital Data Service (ADDS)

Output produced by METARs form (1827 UTC 24 November 2017)
found at http://www.aviationweather.gov/adds/metars/
 
METAR text: EHGG 241825Z AUTO 23006KT 8000 NSC 02/02 Q1011 NOSIG
Conditions at: EHGG (GRONINGEN/EELDE , NL) observed 1825 UTC 24 November 2017
Temperature: 2.0°C (36°F)
Dewpoint: 2.0°C (36°F) [RH = 100%]
Pressure (altimeter): 29.85 inches Hg (1011.0 mb)
Winds: from the SW (230 degrees) at 7 MPH (6 knots; 3.1 m/s)
Visibility: 5 miles (8 km)
Ceiling: at least 12,000 feet AGL
Clouds: sky clear below 12,000 feet AGL
Weather: no significant weather observed at this time